Time;durP1;ratioP1;P1;durP2;ratioP2;P2;SDS_P1;SDS_P2;PMS_P1;PMS_P2;Temp;Humidity;BMP_temperature;BMP_pressure;BME280_temperature;BME280_humidity;BME280_pressure;Samples;Min_cycle;Max_cycle;Signal;HPM_P1;HPM_P2
2022/05/28 00:01:46;;;;;;;2.95;0.68;;;12.70;69.80;;;;;;5019974;28;20042;-80
2022/05/28 00:04:18;;;;;;;3.80;0.60;;;12.70;69.90;;;;;;5030609;28;20095;-81
2022/05/28 00:06:46;;;;;;;6.43;0.82;;;12.70;70.10;;;;;;5031960;28;20111;-80
2022/05/28 00:09:17;;;;;;;2.95;0.52;;;12.60;70.10;;;;;;5028025;28;20042;-81
2022/05/28 00:11:45;;;;;;;2.97;0.60;;;12.60;70.20;;;;;;5027907;28;20126;-81
2022/05/28 00:14:13;;;;;;;3.55;0.60;;;12.60;70.30;;;;;;5031595;28;20550;-85
2022/05/28 00:16:41;;;;;;;4.07;0.50;;;12.60;70.40;;;;;;5031571;28;20483;-84
2022/05/28 00:19:09;;;;;;;2.97;0.63;;;12.60;70.50;;;;;;5014930;28;20060;-89
2022/05/28 00:21:36;;;;;;;4.45;0.80;;;12.50;70.60;;;;;;5031900;28;20045;-88
2022/05/28 00:24:03;;;;;;;4.70;0.73;;;12.50;70.80;;;;;;5038898;28;20492;-90
2022/05/28 00:26:53;;;;;;;5.32;0.90;;;12.50;71.00;;;;;;5023492;28;20155;-89
2022/05/28 00:29:35;;;;;;;2.45;0.50;;;12.40;71.20;;;;;;5028565;28;20449;-91
2022/05/28 00:32:09;;;;;;;2.85;0.88;;;12.40;71.40;;;;;;5039148;28;20049;-89
2022/05/28 00:34:43;;;;;;;3.58;0.60;;;12.40;71.40;;;;;;5038299;28;20045;-83
2022/05/28 00:37:11;;;;;;;3.38;0.50;;;12.40;71.50;;;;;;5018820;28;20492;-83
2022/05/28 00:39:40;;;;;;;2.08;0.68;;;12.30;71.40;;;;;;5031483;28;20141;-85
2022/05/28 00:42:08;;;;;;;5.10;0.47;;;12.30;71.60;;;;;;5034055;28;20558;-82
2022/05/28 00:44:35;;;;;;;3.40;0.60;;;12.30;71.70;;;;;;5034740;28;20050;-80
2022/05/28 00:47:04;;;;;;;3.50;0.88;;;12.30;72.00;;;;;;5037282;28;20060;-82
2022/05/28 00:49:33;;;;;;;4.22;0.70;;;12.30;72.30;;;;;;5037149;28;20562;-83
2022/05/28 00:52:03;;;;;;;2.97;0.45;;;12.30;72.40;;;;;;5014988;28;20455;-83
2022/05/28 00:54:40;;;;;;;1.63;0.40;;;12.30;72.50;;;;;;5019534;28;20061;-82
2022/05/28 00:57:30;;;;;;;3.72;0.60;;;12.20;72.40;;;;;;5037035;28;20064;-81
2022/05/28 01:00:49;;;;;;;2.17;0.50;;;12.20;72.50;;;;;;5023227;28;20045;-82
2022/05/28 01:03:41;;;;;;;3.22;0.40;;;12.20;72.60;;;;;;5050776;28;20045;-82
2022/05/28 01:06:20;;;;;;;2.88;0.30;;;12.20;72.60;;;;;;5033246;28;20049;-82
2022/05/28 01:09:34;;;;;;;5.93;0.57;;;12.10;72.70;;;;;;5036853;28;20044;-81
2022/05/28 01:12:30;;;;;;;1.33;0.32;;;12.10;72.70;;;;;;5029820;28;20519;-81
2022/05/28 01:15:38;;;;;;;3.13;0.50;;;12.10;73.00;;;;;;5024774;28;20073;-82
2022/05/28 01:18:16;;;;;;;4.63;0.80;;;12.10;73.30;;;;;;5027001;28;20092;-81
2022/05/28 01:20:52;;;;;;;5.53;0.88;;;12.00;73.50;;;;;;5031301;28;20077;-81
2022/05/28 01:23:48;;;;;;;3.08;0.65;;;12.00;74.40;;;;;;5037804;28;20057;-82
2022/05/28 01:26:56;;;;;;;5.47;0.93;;;12.00;73.90;;;;;;5047753;28;20061;-82
2022/05/28 01:29:28;;;;;;;3.08;0.82;;;12.00;74.20;;;;;;5035059;28;20041;-82
2022/05/28 01:32:02;;;;;;;5.20;0.70;;;11.90;74.40;;;;;;5026966;28;20122;-81
2022/05/28 01:35:02;;;;;;;3.50;0.80;;;11.90;74.70;;;;;;5029968;28;20107;-82
2022/05/28 01:37:32;;;;;;;4.85;0.60;;;11.90;74.50;;;;;;5032708;28;20050;-82
2022/05/28 01:40:05;;;;;;;3.00;0.35;;;11.80;74.80;;;;;;5049768;28;20453;-81
2022/05/28 01:42:38;;;;;;;2.60;0.40;;;11.80;74.70;;;;;;5050523;28;20068;-82
2022/05/28 01:45:29;;;;;;;2.42;0.60;;;11.80;74.80;;;;;;5033906;28;20041;-82
2022/05/28 01:48:08;;;;;;;2.80;0.50;;;11.80;75.00;;;;;;5035344;28;20042;-82
2022/05/28 01:50:47;;;;;;;2.63;0.40;;;11.80;75.20;;;;;;5023832;28;20484;-82
2022/05/28 01:56:15;;;;;;;3.53;0.40;;;11.80;75.40;;;;;;5043001;28;20148;-82
2022/05/28 01:58:58;;;;;;;1.90;0.50;;;11.80;75.60;;;;;;5014195;28;20044;-82
2022/05/28 02:01:37;;;;;;;4.03;0.50;;;11.80;75.50;;;;;;5042671;28;20049;-81
2022/05/28 02:04:22;;;;;;;3.72;0.47;;;11.80;75.70;;;;;;5022780;28;20045;-82
2022/05/28 02:07:08;;;;;;;2.47;0.40;;;11.80;76.70;;;;;;5018083;28;20398;-82
2022/05/28 02:09:45;;;;;;;6.57;0.60;;;11.80;76.10;;;;;;5021345;28;20054;-82
2022/05/28 02:12:44;;;;;;;3.75;0.65;;;11.80;76.00;;;;;;5027341;28;20054;-82
2022/05/28 02:15:52;;;;;;;2.90;0.43;;;11.80;76.20;;;;;;5026100;28;20045;-82
2022/05/28 02:18:55;;;;;;;3.92;0.60;;;11.90;76.30;;;;;;5024182;28;20491;-81
2022/05/28 02:21:39;;;;;;;2.20;0.65;;;11.80;76.20;;;;;;5037881;28;20396;-82
2022/05/28 02:24:37;;;;;;;3.88;0.88;;;11.80;76.30;;;;;;5030183;28;20069;-81
2022/05/28 02:27:17;;;;;;;3.22;0.52;;;11.80;76.70;;;;;;5024442;28;20099;-81
2022/05/28 02:29:50;;;;;;;4.35;0.68;;;11.80;76.80;;;;;;5052179;28;20132;-82
2022/05/28 02:32:28;;;;;;;4.32;1.02;;;11.70;76.80;;;;;;5022198;28;20049;-82
2022/05/28 02:34:55;;;;;;;2.53;0.50;;;11.80;77.40;;;;;;5016416;28;20042;-82
2022/05/28 02:37:29;;;;;;;4.75;0.60;;;11.70;77.30;;;;;;5020903;28;20050;-82
2022/05/28 02:40:05;;;;;;;3.65;0.38;;;11.70;77.40;;;;;;5030641;28;20047;-82
2022/05/28 02:42:41;;;;;;;3.47;0.50;;;11.70;77.40;;;;;;5026008;28;20037;-81
2022/05/28 02:45:30;;;;;;;1.88;0.50;;;11.70;77.60;;;;;;5010998;28;20041;-81
2022/05/28 02:48:10;;;;;;;1.23;0.40;;;11.70;77.70;;;;;;5016694;28;20046;-80
2022/05/28 02:51:06;;;;;;;3.72;0.47;;;11.60;77.80;;;;;;5037983;28;20408;-81
2022/05/28 02:53:40;;;;;;;3.95;0.50;;;11.60;78.00;;;;;;5024588;28;20046;-81
2022/05/28 02:56:07;;;;;;;;;;;11.60;78.40;;;;;;5041263;28;20038;-83
2022/05/28 02:58:42;;;;;;;3.08;0.70;;;11.60;78.50;;;;;;5027603;28;19931;-82
2022/05/28 03:01:34;;;;;;;3.60;0.52;;;11.60;78.60;;;;;;5007662;28;20049;-82
2022/05/28 03:04:09;;;;;;;2.92;0.60;;;11.60;78.70;;;;;;5031639;28;20451;-85
2022/05/28 03:06:37;;;;;;;3.85;0.50;;;11.50;78.70;;;;;;5040543;28;20100;-83
2022/05/28 03:09:08;;;;;;;1.92;0.45;;;11.50;78.70;;;;;;5028333;28;20082;-82
2022/05/28 03:11:38;;;;;;;3.55;0.40;;;11.50;78.90;;;;;;5031726;28;20161;-83
2022/05/28 03:14:09;;;;;;;3.92;0.88;;;11.50;78.90;;;;;;5035793;28;20041;-84
2022/05/28 03:16:53;;;;;;;3.15;0.43;;;11.50;79.10;;;;;;5022221;28;20065;-83
2022/05/28 03:19:27;;;;;;;4.65;0.80;;;11.50;79.20;;;;;;5016437;28;20084;-81
2022/05/28 03:21:54;;;;;;;3.55;0.50;;;11.50;79.30;;;;;;5017637;28;20045;-83
2022/05/28 03:24:21;;;;;;;2.58;0.40;;;11.50;79.30;;;;;;5029586;28;20041;-83
2022/05/28 03:26:54;;;;;;;2.20;0.30;;;11.50;79.40;;;;;;5021221;28;20510;-82
2022/05/28 03:29:21;;;;;;;;;;;11.50;79.80;;;;;;5002596;28;20046;-83
2022/05/28 03:31:49;;;;;;;5.43;0.70;;;11.40;79.80;;;;;;5040526;28;20050;-82
2022/05/28 03:34:21;;;;;;;6.43;1.00;;;11.40;80.10;;;;;;5033257;28;20042;-82
2022/05/28 03:36:49;;;;;;;3.15;0.90;;;11.40;80.70;;;;;;5025870;28;20088;-84
2022/05/28 03:39:21;;;;;;;3.78;0.50;;;11.40;80.60;;;;;;5028143;28;20045;-83
2022/05/28 03:41:51;;;;;;;3.20;0.50;;;11.40;80.50;;;;;;5018454;28;20541;-83
2022/05/28 03:44:19;;;;;;;1.95;0.77;;;11.40;80.40;;;;;;5023077;28;20051;-83
2022/05/28 03:46:49;;;;;;;4.43;0.68;;;11.30;80.60;;;;;;5026293;28;20411;-82
2022/05/28 03:49:37;;;;;;;4.03;0.60;;;11.30;80.80;;;;;;5003081;28;20405;-83
2022/05/28 03:52:10;;;;;;;4.15;0.50;;;11.30;80.90;;;;;;5039687;28;20080;-84
2022/05/28 03:54:51;;;;;;;2.42;0.47;;;11.30;80.90;;;;;;5048896;28;20048;-83
2022/05/28 03:57:30;;;;;;;3.22;0.57;;;11.30;81.50;;;;;;5025723;28;20041;-83
2022/05/28 04:00:05;;;;;;;3.22;0.40;;;11.20;80.90;;;;;;5030589;28;20095;-82
2022/05/28 04:02:33;;;;;;;2.90;0.57;;;11.20;81.00;;;;;;5044493;28;20119;-81
2022/05/28 04:05:04;;;;;;;3.85;0.50;;;11.30;81.10;;;;;;5000243;28;20488;-82
2022/05/28 04:07:31;;;;;;;3.95;0.55;;;11.30;81.20;;;;;;5022479;28;20384;-83
2022/05/28 04:09:58;;;;;;;1.35;0.40;;;11.30;81.10;;;;;;5054593;28;20480;-83
2022/05/28 04:12:31;;;;;;;2.47;0.50;;;11.30;81.20;;;;;;5012594;28;20045;-83
2022/05/28 04:14:59;;;;;;;4.35;0.70;;;11.30;81.10;;;;;;5022248;28;20053;-82
2022/05/28 04:17:27;;;;;;;2.83;0.43;;;11.30;81.20;;;;;;5032146;28;20061;-83
2022/05/28 04:19:54;;;;;;;4.13;0.50;;;11.20;81.40;;;;;;5039354;28;20077;-83
2022/05/28 04:22:21;;;;;;;4.97;0.60;;;11.30;81.20;;;;;;5021675;28;20041;-84
2022/05/28 04:24:48;;;;;;;5.30;0.73;;;11.30;81.30;;;;;;5009229;28;20049;-83
2022/05/28 04:27:15;;;;;;;9.02;0.60;;;11.30;81.20;;;;;;5026154;28;20049;-83
2022/05/28 04:29:43;;;;;;;2.60;0.45;;;11.30;81.30;;;;;;5001368;28;20430;-83
2022/05/28 04:32:11;;;;;;;4.03;0.30;;;11.30;81.10;;;;;;5007058;28;20053;-83
2022/05/28 04:34:38;;;;;;;1.80;0.30;;;11.30;81.00;;;;;;4997864;28;20056;-82
2022/05/28 04:37:05;;;;;;;3.15;0.35;;;11.30;80.90;;;;;;5011430;28;20034;-83
2022/05/28 04:39:32;;;;;;;1.35;0.30;;;11.30;80.90;;;;;;5056658;28;20045;-82
2022/05/28 04:42:00;;;;;;;3.03;0.40;;;11.40;80.80;;;;;;5013704;28;20196;-82
2022/05/28 04:44:27;;;;;;;3.42;0.57;;;11.40;80.90;;;;;;5018901;28;20045;-82
2022/05/28 04:46:54;;;;;;;4.07;0.47;;;11.50;80.70;;;;;;5009995;28;20136;-81
2022/05/28 04:49:21;;;;;;;1.58;0.30;;;11.50;80.60;;;;;;5023270;28;20069;-82
2022/05/28 04:51:51;;;;;;;2.33;0.20;;;11.50;81.00;;;;;;5007014;28;20049;-82
2022/05/28 04:54:18;;;;;;;2.65;0.30;;;11.60;80.40;;;;;;5015429;28;20068;-82
2022/05/28 04:56:46;;;;;;;1.60;0.30;;;11.60;80.20;;;;;;5008361;28;20046;-81
2022/05/28 04:59:13;;;;;;;3.08;0.45;;;11.70;80.10;;;;;;5029745;28;20037;-81
2022/05/28 05:01:40;;;;;;;1.08;0.20;;;11.80;79.90;;;;;;5041934;28;20048;-81
2022/05/28 05:04:08;;;;;;;0.60;0.15;;;11.90;79.60;;;;;;5009401;28;20045;-81
2022/05/28 05:06:35;;;;;;;3.92;0.47;;;12.00;79.40;;;;;;5025627;28;20573;-81
2022/05/28 05:09:02;;;;;;;4.07;0.77;;;12.10;79.10;;;;;;5016702;28;20045;-82
2022/05/28 05:11:30;;;;;;;3.20;0.20;;;12.20;78.90;;;;;;5034186;28;20077;-80
2022/05/28 05:13:57;;;;;;;2.17;0.30;;;12.20;78.70;;;;;;5034216;28;20048;-82
2022/05/28 05:16:24;;;;;;;4.15;0.40;;;12.30;78.60;;;;;;5020218;28;20061;-80
2022/05/28 05:18:51;;;;;;;1.55;0.10;;;12.30;78.50;;;;;;5037953;28;20053;-81
2022/05/28 05:21:19;;;;;;;2.13;0.30;;;12.40;78.30;;;;;;5021019;28;20042;-82
2022/05/28 05:23:46;;;;;;;4.68;0.52;;;12.40;78.10;;;;;;5031442;28;20123;-81
2022/05/28 05:26:16;;;;;;;0.52;0.10;;;12.50;78.00;;;;;;5025554;28;20100;-82
2022/05/28 05:28:45;;;;;;;0.80;0.13;;;12.50;77.90;;;;;;5018344;28;20056;-81
2022/05/28 05:31:14;;;;;;;3.50;0.30;;;12.60;77.70;;;;;;5058611;28;20069;-82
2022/05/28 05:33:41;;;;;;;3.75;0.40;;;12.60;77.40;;;;;;5023627;28;20045;-81
2022/05/28 05:36:09;;;;;;;2.47;0.30;;;12.70;77.30;;;;;;4986121;28;20061;-81
2022/05/28 05:38:38;;;;;;;0.98;0.25;;;12.70;77.10;;;;;;5027587;28;20064;-81
2022/05/28 05:41:06;;;;;;;1.52;0.20;;;12.80;77.00;;;;;;5033423;28;20144;-81
2022/05/28 05:43:35;;;;;;;0.57;0.20;;;13.00;76.80;;;;;;5030775;28;20045;-82
2022/05/28 05:46:03;;;;;;;2.63;0.68;;;13.10;76.60;;;;;;5017965;28;20456;-82
2022/05/28 05:48:31;;;;;;;3.45;0.40;;;13.10;76.30;;;;;;5020146;28;20085;-82
2022/05/28 05:51:06;;;;;;;4.82;0.30;;;13.20;76.00;;;;;;5022107;28;20050;-81
2022/05/28 05:53:33;;;;;;;2.70;0.20;;;13.30;75.60;;;;;;5034246;28;20133;-82
2022/05/28 05:56:00;;;;;;;3.17;0.60;;;13.30;75.20;;;;;;5038981;28;20077;-81
2022/05/28 05:58:28;;;;;;;2.75;0.43;;;13.30;75.00;;;;;;5044296;28;20038;-81
2022/05/28 06:00:55;;;;;;;3.35;0.30;;;13.40;74.70;;;;;;5023786;28;20050;-81
2022/05/28 06:03:25;;;;;;;3.72;0.43;;;13.50;74.40;;;;;;5016739;28;20049;-81
2022/05/28 06:05:56;;;;;;;1.45;0.30;;;13.50;74.10;;;;;;4993141;28;20104;-80
2022/05/28 06:08:24;;;;;;;1.52;0.35;;;13.60;74.00;;;;;;5031743;28;20075;-81
2022/05/28 06:10:51;;;;;;;5.25;0.47;;;13.60;73.90;;;;;;5025964;28;20057;-80
2022/05/28 06:13:21;;;;;;;3.25;0.52;;;13.70;74.30;;;;;;5027017;28;20041;-80
2022/05/28 06:15:49;;;;;;;3.65;0.40;;;13.80;73.60;;;;;;5033276;28;20041;-81
2022/05/28 06:18:17;;;;;;;4.30;0.82;;;14.00;73.40;;;;;;5004464;28;20243;-82
2022/05/28 06:20:47;;;;;;;1.63;0.47;;;14.10;73.00;;;;;;5046138;28;20045;-82
2022/05/28 06:23:19;;;;;;;4.53;0.50;;;14.30;72.30;;;;;;5036026;28;20045;-82
2022/05/28 06:25:47;;;;;;;3.58;0.43;;;14.30;71.70;;;;;;5030367;28;20042;-81
2022/05/28 06:28:16;;;;;;;2.13;0.28;;;14.50;71.80;;;;;;5049767;28;20048;-82
2022/05/28 06:30:47;;;;;;;2.85;0.30;;;14.50;70.60;;;;;;5058776;28;20499;-82
2022/05/28 06:33:15;;;;;;;2.88;0.45;;;14.60;70.00;;;;;;5040103;28;20049;-81
2022/05/28 06:35:43;;;;;;;3.10;0.30;;;14.60;69.10;;;;;;5013403;28;20412;-82
2022/05/28 06:38:10;;;;;;;0.80;0.20;;;14.70;68.60;;;;;;5032883;28;20558;-82
2022/05/28 06:40:40;;;;;;;1.92;0.40;;;14.80;68.20;;;;;;5016493;28;20046;-83
2022/05/28 06:43:07;;;;;;;2.58;0.30;;;14.90;67.70;;;;;;5018908;28;20399;-82
2022/05/28 06:45:34;;;;;;;3.90;0.57;;;14.90;66.50;;;;;;5022247;28;20053;-81
2022/05/28 06:48:01;;;;;;;1.90;0.52;;;14.90;66.30;;;;;;5037601;28;20408;-81
2022/05/28 06:53:15;;;;;;;2.47;0.20;;;14.90;66.20;;;;;;5027266;28;20435;-82
2022/05/28 06:55:42;;;;;;;3.25;0.50;;;15.10;65.90;;;;;;5037904;28;20101;-81
2022/05/28 06:58:12;;;;;;;3.10;0.35;;;15.20;65.40;;;;;;5030653;28;20136;-81
2022/05/28 07:00:41;;;;;;;7.07;0.88;;;15.20;65.10;;;;;;5032491;28;20069;-82
2022/05/28 07:03:25;;;;;;;3.72;0.35;;;15.20;64.70;;;;;;5017839;28;20045;-81
2022/05/28 07:06:00;;;;;;;6.68;0.50;;;15.20;64.70;;;;;;5023765;28;20049;-81
2022/05/28 07:08:33;;;;;;;1.80;0.35;;;15.30;64.50;;;;;;5029826;28;20056;-81
2022/05/28 07:11:08;;;;;;;5.20;0.57;;;15.30;63.70;;;;;;5023057;28;20044;-82
2022/05/28 07:13:37;;;;;;;3.67;0.20;;;15.30;63.60;;;;;;5016580;28;20088;-83
2022/05/28 07:16:11;;;;;;;2.05;0.57;;;15.30;63.80;;;;;;5012760;28;20691;-83
2022/05/28 07:18:42;;;;;;;;;;;15.30;63.80;;;;;;5040677;28;20046;-83
2022/05/28 07:21:11;;;;;;;3.95;0.52;;;15.10;62.80;;;;;;5025795;28;19921;-82
2022/05/28 07:23:39;;;;;;;3.33;0.50;;;14.90;62.50;;;;;;5026514;28;20077;-83
2022/05/28 07:26:13;;;;;;;2.55;0.20;;;14.80;63.00;;;;;;5026585;28;20090;-82
2022/05/28 07:28:42;;;;;;;3.67;0.40;;;14.70;62.50;;;;;;5039025;28;20057;-83
2022/05/28 07:31:15;;;;;;;6.18;0.55;;;14.60;62.90;;;;;;5060967;28;20037;-84
2022/05/28 07:33:44;;;;;;;4.63;0.40;;;14.50;62.90;;;;;;5024739;28;20484;-83
2022/05/28 07:36:20;;;;;;;2.60;0.32;;;14.50;63.20;;;;;;5026182;28;20073;-83
2022/05/28 07:38:52;;;;;;;3.40;0.40;;;14.70;63.40;;;;;;5038498;28;20124;-84
2022/05/28 07:41:25;;;;;;;3.00;0.32;;;14.90;63.00;;;;;;5054728;28;20068;-84
2022/05/28 07:43:56;;;;;;;9.65;0.55;;;15.10;62.50;;;;;;5031559;28;20081;-83
2022/05/28 07:46:26;;;;;;;2.33;0.20;;;15.20;61.90;;;;;;5035408;28;20529;-84
2022/05/28 07:48:56;;;;;;;2.75;0.75;;;15.40;61.60;;;;;;5020083;28;20060;-81
2022/05/28 07:51:23;;;;;;;4.63;0.60;;;15.50;61.50;;;;;;5007779;28;20424;-83
2022/05/28 07:53:51;;;;;;;3.50;0.30;;;15.70;61.10;;;;;;5027677;28;20135;-83
2022/05/28 07:56:18;;;;;;;3.70;0.50;;;15.80;60.80;;;;;;5031054;28;20045;-84
2022/05/28 07:58:54;;;;;;;6.57;0.40;;;16.00;60.50;;;;;;5007923;28;20618;-82
2022/05/28 08:01:24;;;;;;;4.05;0.40;;;16.00;60.00;;;;;;5017545;28;20059;-83
2022/05/28 08:03:53;;;;;;;1.88;0.35;;;16.00;60.00;;;;;;5047424;28;20095;-83
2022/05/28 08:06:20;;;;;;;3.50;0.50;;;16.00;59.80;;;;;;5018965;28;20045;-83
2022/05/28 08:08:48;;;;;;;4.18;0.40;;;15.80;59.40;;;;;;5046490;28;20049;-84
2022/05/28 08:11:16;;;;;;;3.53;0.57;;;15.80;60.10;;;;;;5021298;28;20056;-84
2022/05/28 08:13:47;;;;;;;1.88;0.30;;;15.80;60.20;;;;;;5028378;28;20084;-84
2022/05/28 08:16:17;;;;;;;6.93;0.52;;;15.90;60.30;;;;;;5015531;28;20045;-83
2022/05/28 08:18:45;;;;;;;2.38;0.32;;;15.80;60.20;;;;;;5019759;28;20048;-83
2022/05/28 08:24:01;;;;;;;2.78;0.40;;;15.80;59.70;;;;;;5015893;28;20053;-84
2022/05/28 08:26:31;;;;;;;2.80;0.30;;;16.00;60.00;;;;;;5002193;28;20042;-83
2022/05/28 08:28:58;;;;;;;3.67;0.50;;;16.10;59.50;;;;;;5017443;28;20451;-83
2022/05/28 08:31:25;;;;;;;2.92;0.57;;;16.00;59.50;;;;;;5022940;28;20044;-82
2022/05/28 08:33:53;;;;;;;2.03;0.40;;;16.10;59.50;;;;;;5038505;28;20052;-83
2022/05/28 08:36:24;;;;;;;2.03;0.47;;;16.20;59.20;;;;;;5027860;28;20487;-83
2022/05/28 08:38:54;;;;;;;2.63;0.52;;;16.10;59.40;;;;;;5033357;28;20459;-83
2022/05/28 08:42:12;;;;;;;2.30;0.30;;;16.00;59.40;;;;;;5066049;28;20042;-84
2022/05/28 08:45:05;;;;;;;3.70;0.47;;;16.00;59.10;;;;;;5035740;28;20125;-83
2022/05/28 08:47:41;;;;;;;3.22;0.40;;;16.30;58.80;;;;;;5037279;28;20053;-83
2022/05/28 08:50:10;;;;;;;5.22;1.05;;;16.50;57.90;;;;;;5037922;28;20487;-81
2022/05/28 08:52:49;;;;;;;4.00;0.47;;;16.40;56.80;;;;;;5035214;28;20125;-85
2022/05/28 08:55:26;;;;;;;2.92;0.50;;;16.60;57.10;;;;;;5057753;28;20037;-86
2022/05/28 08:58:01;;;;;;;2.00;0.43;;;16.90;56.40;;;;;;5020253;28;20041;-85
2022/05/28 09:00:46;;;;;;;2.50;0.60;;;16.90;55.30;;;;;;5039291;28;20049;-83
2022/05/28 09:03:22;;;;;;;3.63;0.35;;;16.80;54.60;;;;;;5030932;28;20488;-86
2022/05/28 09:05:52;;;;;;;3.58;0.50;;;16.60;55.40;;;;;;5024171;28;20065;-87
2022/05/28 09:08:33;;;;;;;4.07;0.50;;;16.50;55.40;;;;;;5049230;28;20045;-87
2022/05/28 09:11:23;;;;;;;2.85;0.43;;;16.40;55.40;;;;;;5036482;28;20092;-86
2022/05/28 09:13:53;;;;;;;5.20;0.70;;;16.50;55.70;;;;;;5027249;28;20149;-87
2022/05/28 09:16:23;;;;;;;3.75;0.50;;;16.70;55.60;;;;;;5001611;28;20064;-87
2022/05/28 09:18:52;;;;;;;1.65;0.40;;;16.70;55.00;;;;;;5017389;28;20045;-86
2022/05/28 09:21:21;;;;;;;3.58;0.75;;;16.60;55.50;;;;;;5015793;28;20101;-85
2022/05/28 09:23:57;;;;;;;2.65;0.30;;;16.60;55.60;;;;;;5028580;28;20037;-85
2022/05/28 09:26:35;;;;;;;3.08;0.50;;;16.70;55.10;;;;;;5035493;28;20052;-85
2022/05/28 09:29:26;;;;;;;3.15;0.30;;;16.80;54.60;;;;;;5021442;28;20073;-83
2022/05/28 09:32:16;;;;;;;3.80;0.40;;;17.20;53.90;;;;;;5031659;28;20424;-83
2022/05/28 09:34:49;;;;;;;3.30;0.45;;;17.50;52.00;;;;;;5021133;28;20041;-84
2022/05/28 09:37:36;;;;;;;2.05;0.30;;;17.60;52.10;;;;;;5050751;28;20502;-84
2022/05/28 09:40:07;;;;;;;4.53;0.40;;;17.60;52.20;;;;;;5003981;28;20124;-83
2022/05/28 09:43:07;;;;;;;3.80;0.40;;;17.40;51.90;;;;;;5021414;28;20042;-82
2022/05/28 09:45:56;;;;;;;2.00;0.50;;;17.30;52.50;;;;;;5001343;28;20057;-83
2022/05/28 09:48:26;;;;;;;2.55;0.38;;;17.40;52.80;;;;;;5032624;28;20575;-83
2022/05/28 09:50:53;;;;;;;3.58;0.50;;;17.50;52.60;;;;;;5048017;28;20049;-87
2022/05/28 09:57:46;;;;;;;;;;;;;;;;;;;;;
2022/05/28 10:00:42;;;;;;;2.97;0.75;;;18.00;50.70;;;;;;5022482;28;20044;-83
2022/05/28 10:07:01;;;;;;;4.07;0.52;;;17.80;49.30;;;;;;5028013;28;20559;-85
2022/05/28 10:10:10;;;;;;;1.20;0.20;;;17.90;49.30;;;;;;5018563;28;20519;-84
2022/05/28 10:13:21;;;;;;;;;;;;;;;;;;;;;
2022/05/28 10:16:14;;;;;;;3.63;0.40;;;18.50;48.90;;;;;;5047832;28;20080;-85
2022/05/28 10:19:37;;;;;;;5.15;0.57;;;18.70;48.30;;;;;;5020964;28;20136;-86
2022/05/28 10:22:15;;;;;;;4.10;0.40;;;18.30;48.40;;;;;;5014771;28;20041;-84
2022/05/28 10:25:01;;;;;;;2.45;0.40;;;17.90;48.90;;;;;;5032957;28;20053;-83
2022/05/28 10:27:58;;;;;;;4.30;0.50;;;17.70;49.70;;;;;;5011838;28;20057;-83
2022/05/28 10:30:44;;;;;;;3.55;0.43;;;17.90;49.80;;;;;;5010749;28;20452;-83
2022/05/28 10:37:54;;;;;;;3.10;0.38;;;18.10;49.60;;;;;;5034898;28;20136;-83
2022/05/28 10:41:20;;;;;;;6.60;0.30;;;18.50;49.10;;;;;;5019196;28;20065;-84
2022/05/28 10:44:23;;;;;;;2.25;0.65;;;18.80;48.40;;;;;;5030027;28;20049;-84
2022/05/28 10:46:53;;;;;;;2.33;0.40;;;18.90;47.70;;;;;;5032666;28;20060;-82
2022/05/28 10:49:52;;;;;;;3.90;0.50;;;18.70;48.00;;;;;;5032231;28;20511;-82
2022/05/28 10:52:27;;;;;;;2.90;0.57;;;18.60;48.50;;;;;;5055409;28;20051;-85
2022/05/28 10:55:03;;;;;;;2.47;0.35;;;18.90;48.20;;;;;;5032603;28;20038;-83
2022/05/28 10:57:40;;;;;;;2.20;0.30;;;19.00;47.90;;;;;;5023187;28;20049;-84
2022/05/28 11:00:14;;;;;;;2.83;0.30;;;19.20;47.90;;;;;;5037032;28;20488;-85
2022/05/28 11:06:38;;;;;;;2.17;0.38;;;18.50;46.90;;;;;;5031322;28;20038;-83
2022/05/28 11:09:26;;;;;;;3.05;0.40;;;18.50;48.00;;;;;;5000475;28;20433;-82
2022/05/28 11:12:18;;;;;;;3.22;0.60;;;18.80;47.70;;;;;;4997935;28;20065;-81
2022/05/28 11:15:11;;;;;;;2.92;0.40;;;19.10;47.20;;;;;;5012253;28;20134;-86
2022/05/28 11:18:03;;;;;;;3.92;0.40;;;19.10;46.70;;;;;;5009447;28;20143;-86
2022/05/28 11:21:34;;;;;;;3.65;0.43;;;19.00;46.40;;;;;;4992270;28;20045;-86
2022/05/28 11:24:46;;;;;;;4.28;0.43;;;18.60;46.70;;;;;;5016498;28;20041;-84
2022/05/28 11:27:43;;;;;;;2.50;0.57;;;18.30;46.60;;;;;;5016514;28;20511;-83
2022/05/28 11:30:14;;;;;;;1.60;0.40;;;18.10;46.90;;;;;;5004826;28;20107;-84
2022/05/28 11:33:08;;;;;;;5.32;0.60;;;18.40;46.70;;;;;;5015111;28;20049;-84
2022/05/28 11:36:03;;;;;;;3.00;0.63;;;18.70;46.20;;;;;;5015210;28;20052;-87
2022/05/28 11:38:49;;;;;;;1.52;0.30;;;19.10;45.70;;;;;;5017048;28;20041;-91
2022/05/28 11:46:45;;;;;;;3.17;0.60;;;19.30;44.50;;;;;;4843244;29;20544;-94
2022/05/28 11:53:05;;;;;;;1.23;0.32;;;19.90;43.10;;;;;;4874034;29;20085;-89
2022/05/28 11:55:36;;;;;;;2.38;0.30;;;19.60;43.60;;;;;;4861554;29;20484;-83
2022/05/28 11:58:27;;;;;;;0.90;0.30;;;19.20;44.00;;;;;;4865212;29;20128;-84
2022/05/28 12:01:13;;;;;;;2.15;0.40;;;18.90;44.60;;;;;;4875683;29;20097;-83
2022/05/28 12:03:54;;;;;;;2.50;0.52;;;19.40;44.30;;;;;;4906306;29;20533;-87
2022/05/28 12:07:29;;;;;;;1.80;0.25;;;19.80;42.50;;;;;;4870524;29;20089;-85
2022/05/28 12:10:01;;;;;;;2.38;0.43;;;20.40;40.90;;;;;;4880823;29;20067;-87
2022/05/28 12:13:10;;;;;;;1.35;0.38;;;21.00;41.10;;;;;;4871295;29;20053;-84
2022/05/28 12:15:40;;;;;;;2.15;0.55;;;20.80;41.20;;;;;;4872950;29;20057;-79
2022/05/28 12:18:10;;;;;;;1.55;0.30;;;20.90;41.20;;;;;;4868522;29;20056;-84
2022/05/28 12:20:53;;;;;;;2.60;0.35;;;21.70;40.50;;;;;;4876324;29;20041;-83
2022/05/28 12:23:37;;;;;;;1.63;0.20;;;21.60;39.60;;;;;;4886775;29;20057;-84
2022/05/28 12:29:45;;;;;;;3.05;0.50;;;21.30;39.30;;;;;;5014231;28;20056;-85
2022/05/28 12:32:48;;;;;;;2.58;0.45;;;20.50;40.30;;;;;;5014759;28;20061;-85
2022/05/28 12:36:06;;;;;;;5.43;0.45;;;19.80;40.90;;;;;;4997784;28;20050;-84
2022/05/28 12:38:56;;;;;;;3.17;0.40;;;20.30;41.00;;;;;;4999352;28;20503;-85
2022/05/28 12:42:04;;;;;;;2.95;0.40;;;21.10;40.50;;;;;;5014632;28;20061;-84
2022/05/28 12:45:43;;;;;;;2.25;0.40;;;21.90;39.40;;;;;;5012340;28;20569;-85
2022/05/28 12:48:31;;;;;;;2.38;0.60;;;21.50;38.50;;;;;;5014575;28;20041;-85
2022/05/28 12:51:41;;;;;;;3.10;0.22;;;21.90;39.10;;;;;;5014604;28;20131;-84
2022/05/28 12:54:21;;;;;;;3.15;0.40;;;21.30;39.00;;;;;;5004660;28;20041;-85
2022/05/28 12:57:06;;;;;;;1.88;0.30;;;20.40;40.00;;;;;;4999910;28;20139;-83
2022/05/28 12:59:43;;;;;;;2.20;0.50;;;20.80;39.70;;;;;;5014894;28;20455;-83
2022/05/28 13:02:16;;;;;;;2.40;0.50;;;21.70;38.50;;;;;;4998342;28;20041;-84
2022/05/28 13:04:47;;;;;;;1.77;0.45;;;22.60;37.40;;;;;;5014303;28;20050;-86
2022/05/28 13:07:32;;;;;;;1.97;0.50;;;22.10;37.60;;;;;;5014848;28;20040;-84
2022/05/28 13:10:17;;;;;;;3.90;0.45;;;21.40;38.30;;;;;;4998462;28;20303;-83
2022/05/28 13:13:23;;;;;;;6.35;0.75;;;20.70;39.30;;;;;;4999370;28;20555;-85
2022/05/28 13:16:27;;;;;;;2.55;0.40;;;20.70;39.60;;;;;;4995657;28;20046;-83
2022/05/28 13:19:04;;;;;;;3.08;0.50;;;20.50;40.30;;;;;;5013663;28;20034;-84
2022/05/28 13:21:37;;;;;;;2.83;0.50;;;20.00;41.00;;;;;;5002138;28;20068;-83
2022/05/28 13:24:10;;;;;;;5.38;0.50;;;19.70;41.90;;;;;;5004129;28;20092;-83
2022/05/28 13:26:40;;;;;;;3.15;0.30;;;19.30;42.50;;;;;;5025477;28;20141;-84
2022/05/28 13:29:10;;;;;;;3.00;0.50;;;19.10;42.90;;;;;;5021113;28;20479;-83
2022/05/28 13:31:39;;;;;;;2.88;0.40;;;19.50;43.00;;;;;;5012837;28;20375;-83
2022/05/28 13:34:25;;;;;;;2.40;0.38;;;20.80;41.90;;;;;;5009563;28;20054;-82
2022/05/28 13:36:52;;;;;;;2.88;0.57;;;22.20;40.50;;;;;;5006994;28;20053;-82
2022/05/28 13:39:20;;;;;;;5.55;0.40;;;23.20;39.50;;;;;;4986424;28;20434;-83
2022/05/28 13:41:49;;;;;;;2.17;0.40;;;23.80;38.70;;;;;;4972119;28;20053;-87
2022/05/28 13:44:21;;;;;;;1.42;0.30;;;24.00;38.60;;;;;;4997675;28;20046;-83
2022/05/28 13:46:58;;;;;;;2.95;0.20;;;23.20;39.30;;;;;;5015044;28;20038;-83
2022/05/28 13:49:27;;;;;;;1.60;0.38;;;22.50;40.30;;;;;;5017774;28;20087;-83
2022/05/28 13:52:16;;;;;;;2.33;0.40;;;23.20;40.20;;;;;;5017354;28;20056;-83
2022/05/28 13:55:03;;;;;;;2.47;0.47;;;24.40;39.00;;;;;;5017419;28;20041;-84
2022/05/28 13:57:42;;;;;;;2.28;0.38;;;25.30;38.20;;;;;;5025201;28;20069;-84
2022/05/28 14:00:19;;;;;;;;;;;26.00;37.40;;;;;;5001931;28;20095;-83
2022/05/28 14:03:01;;;;;;;1.92;0.30;;;26.10;34.20;;;;;;5017351;28;20366;-84
2022/05/28 14:05:41;;;;;;;1.48;0.20;;;26.10;34.00;;;;;;5002787;28;20057;-84
2022/05/28 14:08:22;;;;;;;1.73;0.30;;;26.30;33.10;;;;;;5017020;28;20056;-85
2022/05/28 14:10:59;;;;;;;1.65;0.30;;;26.50;33.60;;;;;;5020969;28;20045;-81
2022/05/28 14:13:29;;;;;;;2.33;0.50;;;26.70;33.80;;;;;;5017300;28;20049;-84
2022/05/28 14:15:58;;;;;;;3.25;0.50;;;25.80;34.00;;;;;;5016053;28;20141;-85
2022/05/28 14:18:35;;;;;;;2.58;0.40;;;25.90;33.60;;;;;;4985685;28;20041;-82
2022/05/28 14:21:09;;;;;;;1.02;0.25;;;25.30;32.70;;;;;;4991713;28;20038;-84